This is the latest recevied weather packets stored in our database for station/object SV1TGC. If no packets are shown the sender has not sent any weather packets the latest 10 day(s).
| Time | Temp. | Humidity | Pressure | Rain* | Wind** | Luminosity | Snow |
|---|---|---|---|---|---|---|---|
| 1777539934 | 23.33° C | 45% | 1015 hPa | 0 mm | - | - | - |
| 1777538135 | 24.44° C | 43% | 1015.1 hPa | 0 mm | - | - | - |
| 1777537249 | 24.44° C | 37% | 1015.2 hPa | 0 mm | - | - | - |
| 1777536955 | 24.44° C | 37% | 1015.2 hPa | 0 mm | - | - | - |
| 1777533364 | 23.33° C | 44% | 1015.2 hPa | 0 mm | - | - | - |
| 1777528850 | 18.89° C | 63% | 1015.3 hPa | 0 mm | - | - | - |
| 1777528534 | 18.89° C | 63% | 1015.2 hPa | 0 mm | - | - | - |
| 1777526435 | 16.11° C | 74% | 1015.3 hPa | 0 mm | - | - | - |
| 1777521934 | 12.22° C | 83% | 1015.1 hPa | 0 mm | - | - | - |
| 1777520435 | 12.22° C | 82% | 1015 hPa | 0 mm | - | - | - |
| 1777520136 | 12.22° C | 82% | 1014.9 hPa | 0 mm | - | - | - |
| 1777519851 | 12.22° C | 82% | 1014.9 hPa | 0 mm | - | - | - |
| 1777518335 | 12.22° C | 80% | 1014.9 hPa | 0 mm | - | - | - |
| 1777517435 | 12.22° C | 79% | 1014.8 hPa | 0 mm | - | - | - |
| 1777516835 | 12.22° C | 78% | 1014.8 hPa | 0 mm | - | - | - |
| 1777515035 | 12.78° C | 76% | 1015 hPa | 0 mm | - | - | - |
| 1777514135 | 12.22° C | 75% | 1015.1 hPa | 0 mm | - | - | - |
| 1777513836 | 12.78° C | 75% | 1015.1 hPa | 0 mm | - | - | - |
| 1777512935 | 12.78° C | 73% | 1015.3 hPa | 0 mm | - | - | - |
| 1777510534 | 12.78° C | 71% | 1015.2 hPa | 0 mm | - | - | - |
| 1777509634 | 12.78° C | 69% | 1015.3 hPa | 0 mm | - | - | - |
| 1777509046 | 13.33° C | 68% | 1015.3 hPa | 0 mm | - | - | - |
| 1777507834 | 13.33° C | 68% | 1015.3 hPa | 0 mm | - | - | - |
| 1777506635 | 13.33° C | 65% | 1015.4 hPa | 0 mm | - | - | - |
| 1777506349 | 13.33° C | 64% | 1015.5 hPa | 0 mm | - | - | - |
* Rain latest hour (hover to see other rain measurements)
** Current wind speed in m/s (hover to see current wind gust speed)